Latest Observation

42 Stations

15 Minute Data | America/Los_Angeles
as of 5/6/26 11:04 AM PDT
Station Date Time Temp (°F) RH (%) Dew Pt (°F) Wind Spd (mph) Wind Dir (°) Wind Gust (mph) Latest Rain (In) Daily Rain (In) Daily Min Temp (°F) Daily Max Temp (°F) Daily Max Wind (mph)
Elk Mt. Farm 5/6/26 1100 66.0   4.6 - - - - - - - 54.0   6.7 66.0   3.7 -
Upper Lake 5/6/26 1100 63.9   3.1 68   3 53.3   1.7 2.1 NW | 317 6.6   1.2 0.00 0.00 53.4   4.5 64.5   2.6 7.2   3.4
Scotts Valley 5/6/26 1100 63.6   2.5 70   0 53.5   2.3 0.9 NNE | 25 4.2   3.0 0.00 0.00 53.7   9.3 64.0   2.0 5.3   2.2
Scotts Valley-South (Bella Vista) 5/6/26 1100 63.4   2.0 61   0 49.8   1.9 1.3 NW | 308 4.8   1.4 0.00 0.00 53.3   7.8 64.0   2.2 6.5   0.3
Kelseyville 5/6/26 1100 63.2   3.9 71   2 53.5   3.0 4.8 NNE | 19 8.1   0.4 0.00 0.00 55.1   7.2 63.9   3.8 9.0   0.4
Kelseyville Remote 5/6/26 1100 64.9   4.2 62   1 51.6   4.5 - - - 0.00 0.00 55.7   7.0 64.9   3.8 -
Kelseyville (Clark Drive) 5/6/26 1100 65.2   4.1 - - - - - 0.00 0.00 55.6   6.6 66.5   4.0 -
Kelsey Bench (Oaklea) 5/6/26 1100 63.4   3.5 65   0 51.6   3.4 0.3 NE | 53 3.8   2.4 0.00 0.00 53.6   6.3 63.7   3.3 6.0   1.5
Smith Lane (Kelseyville-South) 5/6/26 1100 64.6   3.8 68   3 53.8   4.8 2.2 N | 6 8.2   2.8 0.00 0.00 54.8   7.4 65.4   4.3 8.2   0.6
Bell Hill-West 5/6/26 1100 64.5   4.4 74   2 56.1   3.6 4.0 NNE | 18 10.1   3.4 0.00 0.00 54.4   7.5 65.8   5.3 10.1   2.4
High Valley Ridgeline (Brassfield) 5/6/26 1100 58.6   1.8 78   1 51.7   2.2 4.5 SW | 232 7.5   0.6 0.00 0.00 51.5   5.4 58.9   1.3 7.5   12.1
Wight Way (Adobe Creek) 5/6/26 1100 67.3   2.9 57   2 51.8   1.7 2.9 ESE | 116 6.7   1.2 0.00 0.00 54.1   7.8 67.3   2.9 6.8   1.2
Ridgeline Top (Brassfield) 5/6/26 1100 59.8   1.6 - - - - - - - 51.5   5.4 60.4   0.5 -
Ridgeline Low (Brassfield) 5/6/26 1100 60.0   3.5 - - - - - - - 53.3   5.3 60.5   3.5 -
Long Valley (Shannon) 5/6/26 1100 65.9   5.8 71   8 56.1   2.6 3.0 ESE | 121 8.9   3.1 0.00 0.00 56.5   7.6 66.5   5.6 8.9   0.3
High Valley Winery 5/6/26 1100 60.9   1.5 73   3 52.2   2.6 3.7 WSW | 238 6.4   0.5 0.00 0.00 54.3   6.0 61.2   0.2 7.3   8.7
Round Mtn Rd. 5/6/26 1045 62.5   6.8 - - - - - - - 53.9   7.0 62.6   5.5 -
Circle O 5/6/26 1100 59.8   4.1 - - - - - - - 52.9   6.7 61.3   5.0 -
Robertsbridge Vineyards 5/6/26 1100 65.6   4.2 60   6 51.4   1.4 - - - - - 53.8   6.8 66.2   4.2 -
Urgency Vineyard 5/6/26 1100 61.6   2.5 68   1 51.0   1.9 2.1 NNE | 20 5.1   3.8 0.00 0.00 53.2   5.2 61.6   0.5 6.6   4.3
Red Hills (Beckstoffer) 5/6/26 1100 62.6   2.1 67   1 51.6   1.7 - - - 0.00 0.00 53.3   4.9 62.9   1.4 -
Winters (Shannon) 5/6/26 1100 61.1   4.7 69   0 51.0   4.4 1.3 NNE | 30 4.1   0.2 0.00 0.00 52.4   5.5 61.6   4.8 4.7   10.2
Secret Pond (Shannon) 5/6/26 1100 60.6   2.0 67   0 49.5   1.8 1.4 E | 97 6.6   1.2 0.00 0.00 52.1   5.6 60.6   2.0 6.6   9.5
Rolling Knolls (Shannon) 5/6/26 1100 63.0   3.9 71   2 53.4   2.9 0.8 NNE | 25 2.4   3.1 0.00 0.00 54.2   4.9 63.0   3.8 3.9   8.8
Lower Lake 5/6/26 1100 63.0   5.7 66   9 51.3   2.0 1.3 E | 87 4.5   2.9 0.00 0.00 54.1   4.4 63.0   5.1 4.7   14.3
Adamson Ranch 5/6/26 1100 64.5   7.3 66   11 53.0   2.8 1.5 N | 353 5.0   0.9 0.00 0.00 54.8   4.3 64.7   7.2 5.0   1.1
Middletown (Diamond D) 5/6/26 1100 65.0   6.2 66   10 53.6   2.1 1.9 SW | 218 5.8   1.8 0.00 0.00 55.7   4.3 65.4   6.2 6.0   1.7
Middletown-West (Domaine Helena) 5/6/26 1100 64.8   5.9 69   7 54.2   3.0 2.2 NE | 38 6.6   1.2 0.00 0.00 54.1   4.1 65.4   4.4 6.6   4.7
Middletown-South 5/6/26 1100 64.8   6.4 61   12 51.2   1.2 2.0 E | 83 5.5   1.1 0.00 0.00 54.8   4.5 65.5   6.4 6.7   11.0
Jim Davis (Langtry) 5/6/26 1100 65.2   9.1 70   18 55.1   2.6 1.2 NW | 326 3.7   0.0 0.00 0.00 55.4   4.4 65.2   9.0 7.2   1.0
Napa Valley Basin 5/6/26 1100 66.0   8.1 71   14 56.2   3.0 1.2 W | 279 3.5   0.1 0.00 0.00 56.2   4.0 66.2   8.0 5.6   0.4
Lower Bohn 5/6/26 1100 65.5   8.1 70   14 55.3   2.7 3.5 N | 360 9.0   5.3 0.00 0.00 53.8   3.7 67.5   9.5 9.5   2.6
Upper Bohn-North 5/6/26 1100 67.2   10.6 61   24 53.5   1.2 1.5 SE | 136 5.2   2.8 0.00 0.00 55.5   4.3 67.6   10.7 5.2   0.2
Snell Peak Blk#9 5/6/26 1100 66.5   9.7 61   23 52.5   0.5 1.4 ENE | 58 3.7   0.1 0.00 0.00 55.3   4.7 66.8   9.9 4.6   0.7
Coyote Lake West 5/6/26 1100 65.9   8.8 66   19 54.1   1.4 1.6 SSE | 152 3.8   0.2 0.00 0.00 56.1   4.5 65.9   8.8 4.7   1.7
Coyote Lake Northeast 5/6/26 1100 66.1   8.9 69   15 55.5   3.2 - - - - - 56.1   4.4 66.1   8.8 -
Coyote Lake East 5/6/26 1100 66.9   8.4 70   12 56.9   3.7 - - - - - 56.8   4.3 66.9   8.4 -
Morgan Valley 5/6/26 1100 59.3   7.9 81   18 53.3   2.4 3.5 NE | 35 7.3   3.0 0.00 0.00 51.0   3.8 59.3   7.8 9.2   13.7
Mine Pit North 5/6/26 1100 61.9   10.6 71   25 52.2   2.1 3.4 N | 9 7.1   0.7 - - 52.1   3.9 62.6   10.8 10.4   6.7
Mine Pit South 5/6/26 1100 62.1   9.4 66   30 50.8   0.8 4.7 N | 351 8.6   0.0 0.00 0.00 51.3   3.8 62.5   9.4 10.4   2.6
Cow Mountain 5/6/26 1100 56.4   2.9 - - 1.8 SW | 227 7.0   2.6 0.00 0.01 47.4   6.3 58.2   1.9 11.2   18.6
Ukiah-SE (Ruddick) 5/6/26 1100 66.9   5.4 58   1 51.8   4.4 1.4 W | 269 4.7   4.9 0.00 0.00 54.5   2.8 67.8   5.7 6.4   4.1
Max     67.3 81 56.9 4.8 - 10.1 0.00 0.01 56.8 67.8 11.2
Avg     63.6 67 53.0 2.2 - 5.9 0.00 - - - -
Min     56.4 57 49.5 0.3 - 2.4 0.00 0.00 47.4 58.2 3.9